Time;durP1;ratioP1;P1;durP2;ratioP2;P2;SDS_P1;SDS_P2;PMS_P1;PMS_P2;Temp;Humidity;BMP_temperature;BMP_pressure;BME280_temperature;BME280_humidity;BME280_pressure;Samples;Min_cycle;Max_cycle;Signal;HPM_P1;HPM_P2
2022/03/21 00:01:16;;;;;;;10.83;6.90;;;;;;;;;;5029769;28;21085;-85
2022/03/21 00:04:20;;;;;;;11.07;6.63;;;;;;;;;;5029977;28;20595;-85
2022/03/21 00:07:24;;;;;;;7.50;5.53;;;;;;;;;;5040747;28;20591;-85
2022/03/21 00:10:32;;;;;;;10.43;6.70;;;;;;;;;;5029953;28;20563;-86
2022/03/21 00:13:36;;;;;;;8.97;6.13;;;;;;;;;;5030270;28;20544;-85
2022/03/21 00:16:41;;;;;;;9.83;6.17;;;;;;;;;;5041024;28;20590;-85
2022/03/21 00:19:45;;;;;;;10.40;5.97;;;;;;;;;;5041462;28;20543;-86
2022/03/21 00:22:50;;;;;;;10.47;6.87;;;;;;;;;;5040838;28;21220;-86
2022/03/21 00:25:54;;;;;;;11.43;6.40;;;;;;;;;;5029487;28;20555;-85
2022/03/21 00:28:58;;;;;;;11.33;6.17;;;;;;;;;;5052262;28;20965;-86
2022/03/21 00:32:05;;;;;;;9.47;5.97;;;;;;;;;;5052631;28;20666;-86
2022/03/21 00:35:20;;;;;;;12.13;6.57;;;;;;;;;;5029919;28;20551;-85
2022/03/21 00:38:26;;;;;;;9.87;6.60;;;;;;;;;;5041027;28;20543;-86
2022/03/21 00:41:32;;;;;;;9.53;6.87;;;;;;;;;;5056604;28;20618;-86
2022/03/21 00:44:37;;;;;;;11.73;6.83;;;;;;;;;;5035795;28;20576;-86
2022/03/21 00:47:42;;;;;;;9.57;7.00;;;;;;;;;;5044402;28;20941;-85
2022/03/21 00:50:46;;;;;;;9.00;6.30;;;;;;;;;;5033755;28;20599;-85
2022/03/21 00:53:50;;;;;;;10.73;6.50;;;;;;;;;;5057798;28;20551;-85
2022/03/21 00:56:54;;;;;;;10.27;7.07;;;;;;;;;;5033386;28;20590;-85
2022/03/21 00:59:58;;;;;;;10.63;7.33;;;;;;;;;;5044476;28;20594;-85
2022/03/21 01:03:02;;;;;;;9.87;7.03;;;;;;;;;;5058926;28;21239;-83
2022/03/21 01:06:06;;;;;;;10.00;6.73;;;;;;;;;;5048114;28;20586;-83
2022/03/21 01:09:12;;;;;;;11.60;6.80;;;;;;;;;;5049237;28;20543;-83
2022/03/21 01:12:16;;;;;;;11.03;6.77;;;;;;;;;;5059873;28;21215;-83
2022/03/21 01:15:22;;;;;;;9.83;6.17;;;;;;;;;;5041725;28;20544;-83
2022/03/21 01:18:29;;;;;;;13.47;6.97;;;;;;;;;;5055613;28;20586;-83
2022/03/21 01:21:33;;;;;;;10.10;6.50;;;;;;;;;;5039073;28;21196;-83
2022/03/21 01:24:38;;;;;;;10.70;6.23;;;;;;;;;;5029249;28;20552;-83
2022/03/21 01:27:43;;;;;;;9.17;6.07;;;;;;;;;;5035773;28;20598;-83
2022/03/21 01:30:47;;;;;;;10.73;6.77;;;;;;;;;;5037055;28;21057;-83
2022/03/21 01:33:53;;;;;;;9.83;6.50;;;;;;;;;;5048383;28;20582;-83
2022/03/21 01:36:57;;;;;;;10.83;7.53;;;;;;;;;;5036895;28;21206;-83
2022/03/21 01:40:02;;;;;;;8.67;6.10;;;;;;;;;;5058407;28;21151;-83
2022/03/21 01:43:10;;;;;;;9.87;6.73;;;;;;;;;;5058317;28;20634;-83
2022/03/21 01:46:14;;;;;;;10.47;6.60;;;;;;;;;;5046657;28;20931;-83
2022/03/21 01:49:21;;;;;;;10.60;6.73;;;;;;;;;;5047791;28;21105;-83
2022/03/21 01:52:26;;;;;;;9.17;5.97;;;;;;;;;;5057386;28;20658;-83
2022/03/21 01:55:46;;;;;;;11.10;6.50;;;;;;;;;;5035634;28;20539;-83
2022/03/21 01:58:50;;;;;;;12.13;6.73;;;;;;;;;;5035271;28;20871;-83
2022/03/21 02:01:54;;;;;;;11.93;7.03;;;;;;;;;;5058046;28;20641;-83
2022/03/21 02:04:58;;;;;;;10.63;7.23;;;;;;;;;;5036098;28;20547;-83
2022/03/21 02:08:04;;;;;;;10.07;6.70;;;;;;;;;;5035818;28;20551;-83
2022/03/21 02:11:09;;;;;;;10.37;6.83;;;;;;;;;;5058494;28;20551;-83
2022/03/21 02:14:13;;;;;;;10.60;6.70;;;;;;;;;;5047257;28;21081;-83
2022/03/21 02:17:23;;;;;;;10.87;6.07;;;;;;;;;;5047655;28;21089;-83
2022/03/21 02:20:31;;;;;;;10.33;6.43;;;;;;;;;;5047578;28;20551;-83
2022/03/21 02:23:38;;;;;;;13.37;7.77;;;;;;;;;;5058430;28;20547;-83
2022/03/21 02:26:45;;;;;;;10.67;6.80;;;;;;;;;;5035936;28;20625;-83
2022/03/21 02:29:50;;;;;;;10.83;6.93;;;;;;;;;;5035837;28;20542;-83
2022/03/21 02:32:55;;;;;;;11.80;7.67;;;;;;;;;;5058492;28;21028;-83
2022/03/21 02:36:01;;;;;;;10.67;6.87;;;;;;;;;;5046705;28;20605;-83
2022/03/21 02:39:05;;;;;;;10.27;6.40;;;;;;;;;;5036066;28;20570;-83
2022/03/21 02:42:10;;;;;;;14.60;6.60;;;;;;;;;;5047169;28;20621;-83
2022/03/21 02:45:15;;;;;;;9.53;6.47;;;;;;;;;;5035205;28;20550;-83
2022/03/21 02:48:20;;;;;;;10.83;6.63;;;;;;;;;;5045270;28;20543;-83
2022/03/21 02:51:26;;;;;;;10.87;6.93;;;;;;;;;;5045286;28;20624;-83
2022/03/21 02:54:31;;;;;;;11.10;6.93;;;;;;;;;;5033603;28;20566;-83
2022/03/21 02:57:37;;;;;;;10.20;6.90;;;;;;;;;;5033507;28;20547;-83
2022/03/21 03:00:41;;;;;;;11.57;7.10;;;;;;;;;;5043982;28;21116;-83
2022/03/21 03:03:46;;;;;;;11.53;6.97;;;;;;;;;;5043339;28;20554;-83
2022/03/21 03:06:51;;;;;;;10.63;7.17;;;;;;;;;;5032493;28;20902;-83
2022/03/21 03:09:56;;;;;;;11.10;6.77;;;;;;;;;;5032702;28;20543;-83
2022/03/21 03:13:00;;;;;;;11.17;7.30;;;;;;;;;;5044159;28;21215;-83
2022/03/21 03:16:05;;;;;;;10.93;7.07;;;;;;;;;;5054804;28;20614;-83
2022/03/21 03:19:10;;;;;;;8.77;6.30;;;;;;;;;;5032086;28;20546;-83
2022/03/21 03:22:17;;;;;;;14.40;7.77;;;;;;;;;;5032288;28;20950;-83
2022/03/21 03:25:23;;;;;;;12.17;6.70;;;;;;;;;;5054774;28;20554;-83
2022/03/21 03:28:27;;;;;;;10.03;6.67;;;;;;;;;;5054654;28;20549;-83
2022/03/21 03:31:36;;;;;;;11.33;7.17;;;;;;;;;;5043404;28;21199;-83
2022/03/21 03:34:40;;;;;;;13.77;7.57;;;;;;;;;;5054857;28;20546;-83
2022/03/21 03:37:45;;;;;;;10.03;7.17;;;;;;;;;;5054695;28;20556;-83
2022/03/21 03:40:50;;;;;;;11.23;7.00;;;;;;;;;;5042873;28;20543;-83
2022/03/21 03:43:56;;;;;;;12.53;7.23;;;;;;;;;;5054658;28;20569;-83
2022/03/21 03:47:03;;;;;;;12.20;7.33;;;;;;;;;;5043726;28;20563;-83
2022/03/21 03:50:09;;;;;;;13.10;7.03;;;;;;;;;;5031332;28;20617;-83
2022/03/21 03:53:14;;;;;;;11.10;6.47;;;;;;;;;;5031186;28;20667;-83
2022/03/21 03:56:18;;;;;;;11.73;7.30;;;;;;;;;;5031220;28;20618;-83
2022/03/21 03:59:22;;;;;;;12.73;7.23;;;;;;;;;;5042944;28;21087;-83
2022/03/21 04:02:26;;;;;;;9.80;7.33;;;;;;;;;;5053770;28;21242;-83
2022/03/21 04:05:30;;;;;;;11.03;7.23;;;;;;;;;;5031113;28;20552;-83
2022/03/21 04:08:34;;;;;;;12.70;7.13;;;;;;;;;;5054085;28;20554;-83
2022/03/21 04:11:39;;;;;;;10.67;7.07;;;;;;;;;;5031348;28;20642;-83
2022/03/21 04:14:46;;;;;;;12.30;6.87;;;;;;;;;;5053607;28;20540;-83
2022/03/21 04:17:53;;;;;;;12.87;7.67;;;;;;;;;;5031255;28;21121;-83
2022/03/21 04:20:57;;;;;;;13.37;7.50;;;;;;;;;;5042524;28;20552;-83
2022/03/21 04:24:01;;;;;;;12.63;7.87;;;;;;;;;;5042221;28;20607;-83
2022/03/21 04:27:05;;;;;;;11.40;7.50;;;;;;;;;;5042170;28;20609;-83
2022/03/21 04:30:09;;;;;;;11.77;7.47;;;;;;;;;;5031198;28;20621;-83
2022/03/21 04:33:14;;;;;;;13.20;8.23;;;;;;;;;;5053289;28;20661;-83
2022/03/21 04:36:19;;;;;;;13.80;7.87;;;;;;;;;;5064600;28;20555;-83
2022/03/21 04:39:23;;;;;;;12.77;7.77;;;;;;;;;;5065416;28;20543;-83
2022/03/21 04:42:27;;;;;;;11.30;6.97;;;;;;;;;;5048998;28;20623;-83
2022/03/21 04:45:32;;;;;;;11.00;8.07;;;;;;;;;;5059617;28;20539;-83
2022/03/21 04:48:36;;;;;;;11.43;7.77;;;;;;;;;;5036489;28;20566;-83
2022/03/21 04:51:40;;;;;;;12.17;7.83;;;;;;;;;;5036729;28;20635;-83
2022/03/21 04:54:44;;;;;;;11.33;7.90;;;;;;;;;;5035746;28;20544;-83
2022/03/21 04:57:49;;;;;;;10.90;7.43;;;;;;;;;;5046903;28;20548;-83
2022/03/21 05:00:54;;;;;;;9.93;7.33;;;;;;;;;;5036274;28;20558;-83
2022/03/21 05:03:58;;;;;;;13.53;7.50;;;;;;;;;;5046381;28;20930;-83
2022/03/21 05:07:02;;;;;;;13.60;7.83;;;;;;;;;;5034856;28;20615;-83
2022/03/21 05:10:07;;;;;;;12.27;7.77;;;;;;;;;;5034803;28;20555;-83
2022/03/21 05:13:11;;;;;;;10.40;7.37;;;;;;;;;;5034114;28;21244;-83
2022/03/21 05:16:15;;;;;;;11.70;7.80;;;;;;;;;;5033581;28;20557;-83
2022/03/21 05:19:20;;;;;;;10.40;7.33;;;;;;;;;;5045001;28;20554;-83
2022/03/21 05:22:24;;;;;;;11.40;8.20;;;;;;;;;;5034193;28;20631;-83
2022/03/21 05:32:13;;;;;;;13.20;7.97;;;;;;;;;;5059421;28;20633;-85
2022/03/21 05:38:40;;;;;;;12.60;7.50;;;;;;;;;;5056839;28;20562;-87
2022/03/21 05:41:46;;;;;;;9.33;6.93;;;;;;;;;;5037292;28;20708;-85
2022/03/21 05:44:51;;;;;;;11.43;7.57;;;;;;;;;;5049338;28;20543;-85
2022/03/21 05:51:22;;;;;;;11.43;7.67;;;;;;;;;;5059723;28;20555;-83
2022/03/21 05:54:27;;;;;;;11.43;7.77;;;;;;;;;;5036273;28;20608;-83
2022/03/21 05:57:31;;;;;;;11.57;8.20;;;;;;;;;;5037943;28;20546;-83
2022/03/21 06:00:36;;;;;;;11.60;7.00;;;;;;;;;;5036631;28;20611;-83
2022/03/21 06:03:41;;;;;;;16.03;8.40;;;;;;;;;;5035091;28;20606;-86
2022/03/21 06:06:46;;;;;;;15.20;8.13;;;;;;;;;;5036122;28;20539;-82
2022/03/21 06:09:50;;;;;;;11.43;7.07;;;;;;;;;;5036498;28;20606;-83
2022/03/21 06:12:55;;;;;;;13.10;7.70;;;;;;;;;;5036476;28;20658;-83
2022/03/21 06:16:04;;;;;;;19.20;11.70;;;;;;;;;;5036828;28;20539;-83
2022/03/21 06:19:08;;;;;;;17.37;9.17;;;;;;;;;;5047902;28;20570;-83
2022/03/21 06:22:13;;;;;;;15.80;9.67;;;;;;;;;;5058476;28;20629;-83
2022/03/21 06:25:17;;;;;;;11.10;8.40;;;;;;;;;;5036482;28;20886;-83
2022/03/21 06:28:22;;;;;;;16.13;10.57;;;;;;;;;;5057536;28;21055;-83
2022/03/21 06:31:26;;;;;;;18.40;10.93;;;;;;;;;;5059199;28;20698;-83
2022/03/21 06:34:30;;;;;;;17.60;11.53;;;;;;;;;;5056673;28;20961;-83
2022/03/21 06:37:35;;;;;;;25.53;16.40;;;;;;;;;;5033433;28;20913;-83
2022/03/21 06:40:40;;;;;;;25.80;16.87;;;;;;;;;;5035009;28;20543;-82
2022/03/21 06:43:44;;;;;;;25.93;17.17;;;;;;;;;;5045449;28;20554;-83
2022/03/21 06:46:48;;;;;;;27.60;15.40;;;;;;;;;;5045572;28;20546;-83
2022/03/21 06:49:52;;;;;;;23.57;15.07;;;;;;;;;;5034041;28;20548;-83
2022/03/21 06:52:57;;;;;;;20.20;14.30;;;;;;;;;;5035244;28;20677;-83
2022/03/21 06:56:03;;;;;;;22.93;14.30;;;;;;;;;;5033670;28;20547;-82
2022/03/21 06:59:07;;;;;;;22.23;11.63;;;;;;;;;;5056755;28;20554;-83
2022/03/21 07:02:12;;;;;;;20.90;10.30;;;;;;;;;;5119169;22;20696;-87
2022/03/21 13:12:07;;;;;;;13.63;8.63;;;;;;;;;;4935544;29;20238;-83
2022/03/21 13:15:12;;;;;;;10.67;7.93;;;;;;;;;;4971419;28;20212;-83
2022/03/21 13:18:16;;;;;;;10.70;8.67;;;;;;;;;;4981167;28;20185;-83
2022/03/21 13:21:22;;;;;;;10.90;8.27;;;;;;;;;;4969880;28;20543;-83
2022/03/21 13:24:42;;;;;;;12.33;8.20;;;;;;;;;;4969836;28;20187;-83
2022/03/21 13:27:46;;;;;;;11.47;8.50;;;;;;;;;;4981610;28;20193;-82
2022/03/21 13:30:59;;;;;;;9.47;7.80;;;;;;;;;;4982764;28;20188;-83
2022/03/21 13:34:07;;;;;;;10.47;7.90;;;;;;;;;;4993097;28;20181;-83
2022/03/21 13:37:19;;;;;;;11.17;7.67;;;;;;;;;;4993484;28;20188;-83
2022/03/21 13:40:27;;;;;;;11.63;8.40;;;;;;;;;;4981931;28;20187;-81
2022/03/21 13:43:32;;;;;;;10.47;8.10;;;;;;;;;;4992692;28;20224;-83
2022/03/21 13:46:37;;;;;;;11.33;8.57;;;;;;;;;;4971103;28;20184;-84
2022/03/21 13:49:41;;;;;;;9.77;8.20;;;;;;;;;;4999865;28;20193;-84
2022/03/21 13:52:48;;;;;;;11.30;7.97;;;;;;;;;;4998193;28;20224;-83
2022/03/21 13:55:52;;;;;;;10.40;8.40;;;;;;;;;;4987156;28;20236;-83
2022/03/21 13:59:11;;;;;;;11.70;8.60;;;;;;;;;;4986240;28;20195;-83
2022/03/21 14:02:17;;;;;;;9.43;7.63;;;;;;;;;;4998085;28;20239;-83
2022/03/21 14:05:27;;;;;;;12.57;7.93;;;;;;;;;;4986384;28;20184;-83
2022/03/21 14:08:32;;;;;;;11.07;8.27;;;;;;;;;;4986539;28;20184;-83
2022/03/21 14:11:38;;;;;;;11.37;9.10;;;;;;;;;;4941235;29;20180;-83
2022/03/21 14:14:42;;;;;;;11.70;8.37;;;;;;;;;;4998957;28;20219;-83
2022/03/21 14:17:46;;;;;;;9.97;8.03;;;;;;;;;;4998865;28;20701;-83
2022/03/21 14:20:51;;;;;;;12.03;9.20;;;;;;;;;;4997628;28;20180;-83
2022/03/21 14:23:55;;;;;;;11.37;8.13;;;;;;;;;;4997931;28;20212;-83
2022/03/21 14:27:00;;;;;;;11.67;8.40;;;;;;;;;;4998642;28;20189;-83
2022/03/21 14:30:04;;;;;;;12.00;8.87;;;;;;;;;;4997344;28;20191;-83
2022/03/21 14:33:08;;;;;;;12.80;8.77;;;;;;;;;;4996305;28;20231;-83
2022/03/21 14:36:13;;;;;;;11.07;7.93;;;;;;;;;;4997719;28;20239;-83
2022/03/21 14:39:17;;;;;;;11.43;8.33;;;;;;;;;;4986066;28;20214;-83
2022/03/21 14:42:21;;;;;;;10.07;8.03;;;;;;;;;;4996765;28;20227;-83
2022/03/21 14:45:25;;;;;;;13.17;8.90;;;;;;;;;;4997784;28;20563;-83
2022/03/21 14:48:30;;;;;;;10.87;8.17;;;;;;;;;;4997320;28;20197;-83
2022/03/21 14:51:35;;;;;;;10.23;8.00;;;;;;;;;;4985410;28;20204;-83
2022/03/21 14:54:39;;;;;;;10.63;7.90;;;;;;;;;;4940329;29;20203;-83
2022/03/21 14:57:43;;;;;;;11.40;8.63;;;;;;;;;;4986361;28;20200;-83
2022/03/21 15:00:49;;;;;;;10.90;8.53;;;;;;;;;;4986260;28;20649;-83
2022/03/21 15:03:53;;;;;;;10.87;7.90;;;;;;;;;;4984688;28;20237;-83
2022/03/21 15:06:57;;;;;;;10.73;8.03;;;;;;;;;;4985066;28;20262;-83
2022/03/21 15:13:24;;;;;;;15.17;7.67;;;;;;;;;;4996180;28;20228;-83
2022/03/21 15:16:28;;;;;;;11.00;7.30;;;;;;;;;;4985485;28;20219;-84
2022/03/21 15:19:32;;;;;;;10.80;7.90;;;;;;;;;;4996545;28;20188;-83
2022/03/21 15:22:37;;;;;;;12.87;7.40;;;;;;;;;;4996183;28;20231;-83
2022/03/21 15:25:41;;;;;;;10.37;7.93;;;;;;;;;;4996577;28;20180;-83
2022/03/21 15:28:46;;;;;;;10.90;8.37;;;;;;;;;;4973939;28;20656;-83
2022/03/21 15:31:51;;;;;;;19.17;12.07;;;;;;;;;;4982954;28;20210;-83
2022/03/21 15:34:55;;;;;;;13.00;8.43;;;;;;;;;;4970376;28;20223;-83
2022/03/21 15:41:40;;;;;;;11.33;7.30;;;;;;;;;;4993405;28;20201;-83
2022/03/21 15:44:45;;;;;;;10.93;7.93;;;;;;;;;;4982291;28;20194;-84
2022/03/21 15:47:49;;;;;;;10.67;7.67;;;;;;;;;;4982429;28;20199;-83
2022/03/21 15:50:54;;;;;;;12.20;8.20;;;;;;;;;;4982348;28;20187;-83
2022/03/21 15:53:58;;;;;;;12.17;8.07;;;;;;;;;;4981452;28;20234;-83
2022/03/21 15:57:04;;;;;;;18.00;8.73;;;;;;;;;;4971898;28;20647;-83
2022/03/21 16:00:13;;;;;;;11.00;8.17;;;;;;;;;;4984120;28;20190;-83
2022/03/21 16:03:22;;;;;;;12.07;7.80;;;;;;;;;;4980893;28;20235;-83
2022/03/21 16:06:26;;;;;;;11.87;7.90;;;;;;;;;;4992983;28;20191;-83
2022/03/21 16:09:30;;;;;;;20.33;7.90;;;;;;;;;;4991814;28;20663;-83
2022/03/21 16:12:35;;;;;;;12.20;8.07;;;;;;;;;;4935075;29;20233;-82
2022/03/21 16:15:41;;;;;;;10.03;7.43;;;;;;;;;;4934482;29;20235;-82
2022/03/21 16:18:45;;;;;;;11.20;7.83;;;;;;;;;;4933593;29;20200;-83
2022/03/21 16:21:51;;;;;;;13.20;8.80;;;;;;;;;;4925190;29;20219;-82
2022/03/21 16:24:55;;;;;;;18.50;8.30;;;;;;;;;;4934615;29;20207;-82
2022/03/21 16:27:59;;;;;;;11.23;8.20;;;;;;;;;;4935562;29;20193;-84
2022/03/21 16:31:03;;;;;;;12.30;8.57;;;;;;;;;;4935152;29;20199;-82
2022/03/21 16:34:08;;;;;;;17.53;8.63;;;;;;;;;;4947176;29;20180;-83
2022/03/21 16:37:15;;;;;;;16.53;8.70;;;;;;;;;;4937532;29;20223;-84
2022/03/21 16:40:20;;;;;;;14.20;8.23;;;;;;;;;;4928494;29;20260;-84
2022/03/21 16:43:26;;;;;;;15.03;8.40;;;;;;;;;;4915250;29;20583;-83
2022/03/21 16:46:31;;;;;;;11.63;8.47;;;;;;;;;;4925545;29;20211;-83
2022/03/21 16:49:38;;;;;;;17.37;8.60;;;;;;;;;;4971581;28;20215;-84
2022/03/21 16:52:48;;;;;;;16.30;8.23;;;;;;;;;;4937240;29;20229;-85
2022/03/21 16:55:52;;;;;;;12.50;8.23;;;;;;;;;;4925301;29;20721;-84
2022/03/21 16:58:56;;;;;;;13.73;9.00;;;;;;;;;;4926196;29;20197;-85
2022/03/21 17:02:00;;;;;;;14.40;8.13;;;;;;;;;;4925945;29;20232;-85
2022/03/21 17:05:11;;;;;;;10.80;7.73;;;;;;;;;;4936375;29;20184;-84
2022/03/21 17:08:17;;;;;;;11.63;7.63;;;;;;;;;;4936957;29;20189;-85
2022/03/21 17:11:21;;;;;;;11.77;7.40;;;;;;;;;;4936777;29;20215;-84
2022/03/21 17:14:26;;;;;;;9.63;7.53;;;;;;;;;;4912614;29;20199;-84
2022/03/21 17:17:30;;;;;;;15.50;7.97;;;;;;;;;;4933596;29;20216;-84
2022/03/21 17:23:58;;;;;;;11.73;7.47;;;;;;;;;;4948001;28;20225;-84
2022/03/21 17:27:02;;;;;;;15.67;7.73;;;;;;;;;;4925696;29;20189;-84
2022/03/21 17:30:08;;;;;;;12.00;6.90;;;;;;;;;;4938894;29;20176;-85
2022/03/21 17:33:13;;;;;;;9.03;7.10;;;;;;;;;;4939990;29;20216;-85
2022/03/21 17:36:18;;;;;;;11.70;6.87;;;;;;;;;;4928834;29;20216;-84
2022/03/21 17:43:58;;;;;;;9.70;6.60;;;;;;;;;;4932974;28;20702;-85
2022/03/21 17:52:27;;;;;;;8.93;6.20;;;;;;;;;;4944445;29;20212;-84
2022/03/21 17:55:31;;;;;;;9.30;6.53;;;;;;;;;;4942233;29;20185;-85
2022/03/21 17:58:37;;;;;;;9.23;6.90;;;;;;;;;;4943116;29;20184;-85
2022/03/21 18:01:43;;;;;;;15.90;7.87;;;;;;;;;;4943492;29;20184;-85
2022/03/21 18:04:56;;;;;;;11.10;7.07;;;;;;;;;;4921525;29;20189;-85
2022/03/21 18:08:00;;;;;;;11.90;7.20;;;;;;;;;;4941242;29;20180;-85
2022/03/21 18:11:04;;;;;;;10.17;7.73;;;;;;;;;;4943401;29;20184;-85
2022/03/21 18:14:08;;;;;;;10.87;6.90;;;;;;;;;;4930405;29;20184;-83
2022/03/21 18:17:13;;;;;;;10.97;7.40;;;;;;;;;;4939220;29;20204;-83
2022/03/21 18:20:18;;;;;;;11.87;7.47;;;;;;;;;;4918338;29;20176;-82
2022/03/21 18:23:24;;;;;;;11.27;7.27;;;;;;;;;;4929967;28;20698;-85
2022/03/21 18:26:29;;;;;;;11.33;7.37;;;;;;;;;;4941727;29;20500;-85
2022/03/21 18:29:34;;;;;;;9.43;6.53;;;;;;;;;;4929606;29;20606;-84
2022/03/21 18:32:38;;;;;;;14.87;7.57;;;;;;;;;;4940895;29;20224;-85
2022/03/21 18:35:42;;;;;;;11.83;7.10;;;;;;;;;;4938524;29;20204;-84
2022/03/21 18:38:47;;;;;;;11.30;7.10;;;;;;;;;;4938812;29;20516;-85
2022/03/21 18:41:52;;;;;;;10.07;7.00;;;;;;;;;;4928103;29;20180;-84
2022/03/21 18:44:59;;;;;;;11.23;6.60;;;;;;;;;;4928557;29;20176;-85
2022/03/21 18:48:03;;;;;;;9.30;6.10;;;;;;;;;;4927298;29;20185;-85
2022/03/21 18:51:07;;;;;;;14.33;7.13;;;;;;;;;;4926264;29;20180;-84
2022/03/21 18:54:12;;;;;;;8.93;6.47;;;;;;;;;;4936159;29;20180;-84
2022/03/21 18:57:16;;;;;;;12.77;7.90;;;;;;;;;;4934842;29;20212;-85
2022/03/21 19:00:20;;;;;;;13.23;7.67;;;;;;;;;;4935384;29;20631;-85
2022/03/21 19:03:24;;;;;;;10.97;7.90;;;;;;;;;;4925274;29;20572;-85
2022/03/21 19:06:29;;;;;;;12.13;7.60;;;;;;;;;;4992025;23;20231;-88
2022/03/21 19:09:34;;;;;;;10.70;7.30;;;;;;;;;;4954042;29;20518;-88
2022/03/21 19:12:39;;;;;;;13.13;7.27;;;;;;;;;;4943238;29;20184;-88
2022/03/21 19:15:44;;;;;;;15.40;7.07;;;;;;;;;;4984288;28;20220;-87
2022/03/21 19:18:48;;;;;;;15.87;7.70;;;;;;;;;;5043055;28;20172;-87
2022/03/21 19:21:52;;;;;;;12.90;8.03;;;;;;;;;;5044191;28;20180;-87
2022/03/21 19:24:57;;;;;;;10.93;7.43;;;;;;;;;;5044229;28;20193;-88
2022/03/21 19:28:02;;;;;;;10.90;6.60;;;;;;;;;;5043552;28;20631;-87
2022/03/21 19:31:09;;;;;;;11.33;7.23;;;;;;;;;;5033024;28;20175;-89
2022/03/21 19:34:16;;;;;;;10.70;7.67;;;;;;;;;;5032496;28;20180;-90
2022/03/21 19:37:20;;;;;;;15.57;7.60;;;;;;;;;;5042896;28;20651;-90
2022/03/21 19:40:24;;;;;;;10.00;7.07;;;;;;;;;;5043093;28;20635;-90
2022/03/21 19:43:32;;;;;;;12.73;7.50;;;;;;;;;;5031423;28;20180;-90
2022/03/21 19:46:36;;;;;;;11.13;7.33;;;;;;;;;;5043366;28;20216;-90
2022/03/21 19:49:40;;;;;;;9.87;6.70;;;;;;;;;;5031787;28;20200;-89
2022/03/21 19:52:46;;;;;;;10.63;7.10;;;;;;;;;;5031622;28;20176;-89
2022/03/21 19:55:51;;;;;;;10.83;7.43;;;;;;;;;;5042939;28;20215;-87
2022/03/21 19:58:56;;;;;;;10.77;7.67;;;;;;;;;;5032042;28;20176;-87
2022/03/21 20:02:00;;;;;;;13.20;7.80;;;;;;;;;;5031688;28;20181;-87
2022/03/21 20:05:05;;;;;;;13.50;7.57;;;;;;;;;;5032020;28;20180;-87
2022/03/21 20:08:10;;;;;;;13.33;7.83;;;;;;;;;;5043259;28;20169;-87
2022/03/21 20:11:14;;;;;;;10.93;7.27;;;;;;;;;;5043159;28;20173;-87
2022/03/21 20:14:18;;;;;;;9.00;6.77;;;;;;;;;;5020009;28;20176;-87
2022/03/21 20:17:22;;;;;;;12.90;7.50;;;;;;;;;;5042828;28;20713;-89
2022/03/21 20:20:26;;;;;;;9.83;7.40;;;;;;;;;;5032336;28;20180;-87
2022/03/21 20:23:31;;;;;;;10.93;6.93;;;;;;;;;;5043197;28;20180;-86
2022/03/21 20:26:35;;;;;;;11.87;7.37;;;;;;;;;;5054348;28;20678;-87
2022/03/21 20:29:39;;;;;;;14.47;7.73;;;;;;;;;;5042738;28;20200;-87
2022/03/21 20:32:43;;;;;;;12.07;7.60;;;;;;;;;;5042367;28;20176;-88
2022/03/21 20:35:48;;;;;;;10.90;6.93;;;;;;;;;;5042716;28;20678;-88
2022/03/21 20:38:52;;;;;;;14.83;7.23;;;;;;;;;;5030986;28;20540;-87
2022/03/21 20:41:56;;;;;;;10.80;7.37;;;;;;;;;;5031186;28;20172;-87
2022/03/21 20:45:00;;;;;;;11.73;7.27;;;;;;;;;;5042374;28;20516;-87
2022/03/21 20:48:07;;;;;;;10.03;7.03;;;;;;;;;;5033550;28;20177;-87
2022/03/21 20:51:13;;;;;;;12.03;7.67;;;;;;;;;;5059277;28;20631;-87
2022/03/21 20:54:18;;;;;;;11.83;7.30;;;;;;;;;;5036881;28;20883;-88
2022/03/21 20:57:22;;;;;;;11.33;7.57;;;;;;;;;;5049215;28;20650;-88
2022/03/21 21:00:29;;;;;;;10.53;7.20;;;;;;;;;;5051746;28;20539;-87
2022/03/21 21:03:33;;;;;;;11.53;7.30;;;;;;;;;;5037574;28;20606;-86
2022/03/21 21:06:37;;;;;;;11.90;7.70;;;;;;;;;;5046325;28;20756;-87
2022/03/21 21:09:42;;;;;;;11.27;6.93;;;;;;;;;;5047211;28;21084;-87
2022/03/21 21:12:46;;;;;;;13.67;7.33;;;;;;;;;;5049861;28;20874;-87
2022/03/21 21:15:52;;;;;;;12.27;7.13;;;;;;;;;;5050776;28;20622;-87
2022/03/21 21:18:57;;;;;;;13.80;7.57;;;;;;;;;;5039803;28;20866;-86
2022/03/21 21:22:01;;;;;;;10.90;6.80;;;;;;;;;;5035185;28;20180;-87
2022/03/21 21:25:07;;;;;;;8.43;6.63;;;;;;;;;;5047114;28;20539;-87
2022/03/21 21:28:13;;;;;;;8.97;6.33;;;;;;;;;;5037157;28;20594;-88
2022/03/21 21:31:17;;;;;;;11.23;7.63;;;;;;;;;;5038027;28;20547;-87
2022/03/21 21:34:22;;;;;;;9.97;6.93;;;;;;;;;;5036868;28;20598;-89
2022/03/21 21:37:27;;;;;;;11.10;6.43;;;;;;;;;;5047055;28;20930;-87
2022/03/21 21:40:32;;;;;;;9.97;6.40;;;;;;;;;;5036177;28;21096;-87
2022/03/21 21:43:36;;;;;;;10.13;6.80;;;;;;;;;;5058777;28;20598;-87
2022/03/21 21:46:41;;;;;;;10.30;6.13;;;;;;;;;;5035737;28;20614;-87
2022/03/21 21:49:45;;;;;;;12.10;6.67;;;;;;;;;;5047041;28;20875;-87
2022/03/21 21:52:50;;;;;;;9.73;6.60;;;;;;;;;;5046879;28;20598;-87
2022/03/21 21:55:54;;;;;;;12.60;7.63;;;;;;;;;;5035498;28;20629;-86
2022/03/21 21:58:58;;;;;;;11.97;6.77;;;;;;;;;;5047265;28;20539;-87
2022/03/21 22:02:03;;;;;;;11.40;7.17;;;;;;;;;;5023818;28;20598;-87
2022/03/21 22:05:07;;;;;;;7.73;6.20;;;;;;;;;;5034265;28;20606;-86
2022/03/21 22:08:14;;;;;;;15.17;7.07;;;;;;;;;;5032267;28;20878;-87
2022/03/21 22:11:18;;;;;;;10.27;6.97;;;;;;;;;;5056238;28;20535;-86
2022/03/21 22:14:23;;;;;;;13.43;7.57;;;;;;;;;;5021508;28;20871;-85
2022/03/21 22:17:27;;;;;;;11.97;7.23;;;;;;;;;;5044016;28;20642;-86
2022/03/21 22:20:31;;;;;;;13.03;7.20;;;;;;;;;;5045158;28;20597;-85
2022/03/21 22:23:35;;;;;;;12.00;7.17;;;;;;;;;;5044984;28;20559;-86
2022/03/21 22:26:39;;;;;;;12.93;7.17;;;;;;;;;;5033058;28;20622;-87
2022/03/21 22:29:43;;;;;;;15.20;7.73;;;;;;;;;;5044568;28;20879;-85
2022/03/21 22:32:47;;;;;;;12.63;7.30;;;;;;;;;;5043850;28;20598;-85
2022/03/21 22:35:52;;;;;;;15.30;8.60;;;;;;;;;;5032683;28;20630;-85
2022/03/21 22:38:57;;;;;;;13.10;8.10;;;;;;;;;;5043786;28;20606;-85
2022/03/21 22:48:47;;;;;;;12.40;7.73;;;;;;;;;;5032573;28;20536;-85
2022/03/21 22:51:51;;;;;;;10.73;6.97;;;;;;;;;;5032747;28;20539;-85
2022/03/21 22:54:57;;;;;;;10.97;7.40;;;;;;;;;;5033168;28;20535;-85
2022/03/21 22:58:02;;;;;;;11.97;7.27;;;;;;;;;;5032424;28;20594;-85
2022/03/21 23:01:07;;;;;;;12.33;7.20;;;;;;;;;;5032541;28;20535;-85
2022/03/21 23:04:11;;;;;;;10.43;7.23;;;;;;;;;;5043700;28;20535;-86
2022/03/21 23:07:16;;;;;;;9.43;6.20;;;;;;;;;;5031606;28;20625;-85
2022/03/21 23:10:20;;;;;;;12.20;7.53;;;;;;;;;;5043665;28;20543;-84
2022/03/21 23:13:25;;;;;;;12.17;7.83;;;;;;;;;;5043176;28;20543;-85
2022/03/21 23:16:30;;;;;;;14.03;8.63;;;;;;;;;;5043000;28;20618;-85
2022/03/21 23:19:34;;;;;;;11.60;7.93;;;;;;;;;;5031370;28;20867;-85
2022/03/21 23:22:38;;;;;;;14.40;8.30;;;;;;;;;;5042833;28;20602;-85
2022/03/21 23:25:42;;;;;;;15.03;9.03;;;;;;;;;;5031112;28;20626;-84
2022/03/21 23:28:47;;;;;;;14.00;8.23;;;;;;;;;;5031804;28;20539;-85
2022/03/21 23:31:51;;;;;;;15.63;9.43;;;;;;;;;;5031789;28;20606;-85
2022/03/21 23:34:55;;;;;;;15.27;9.40;;;;;;;;;;5031633;28;20594;-85
2022/03/21 23:38:01;;;;;;;15.63;9.90;;;;;;;;;;5031693;28;20599;-85
2022/03/21 23:44:28;;;;;;;17.07;9.10;;;;;;;;;;5031576;28;20539;-85
2022/03/21 23:47:34;;;;;;;14.43;8.77;;;;;;;;;;5054545;28;20547;-85
2022/03/21 23:50:39;;;;;;;12.93;7.20;;;;;;;;;;5054788;28;20539;-85
2022/03/21 23:53:43;;;;;;;11.97;7.40;;;;;;;;;;5042592;28;20594;-84
2022/03/21 23:56:47;;;;;;;13.27;7.47;;;;;;;;;;5042610;28;20629;-85
2022/03/21 23:59:52;;;;;;;10.30;6.40;;;;;;;;;;5031558;28;20862;-85
